createdAt,value
2022-11-27T15:14:29.444Z,21.21
2022-11-27T15:16:58.541Z,20.47
2022-11-27T15:19:29.727Z,20.16
2022-11-27T15:21:58.071Z,20.01
2022-11-27T15:24:31.792Z,19.91
2022-11-27T15:27:16.633Z,19.87
2022-11-27T15:30:00.832Z,19.88
2022-11-27T15:32:45.587Z,19.80
2022-11-27T15:35:14.901Z,19.78
2022-11-27T15:37:42.894Z,25.57
2022-11-27T15:40:26.311Z,18.38
2022-11-27T15:42:53.757Z,20.35
2022-11-27T15:45:23.536Z,20.24
2022-11-27T15:47:58.803Z,20.03
2022-11-27T15:50:26.252Z,19.91
2022-11-27T16:35:17.359Z,24.20
2022-11-27T16:37:44.814Z,22.99
2022-11-27T16:40:13.785Z,22.91
2022-11-27T16:42:41.268Z,23.13
2022-11-27T16:45:10.098Z,23.10
2022-11-27T16:47:37.776Z,22.76
2022-11-27T16:50:06.255Z,22.68
2022-11-27T16:52:35.060Z,22.65
2022-11-27T16:55:02.722Z,22.64
2022-11-27T16:57:30.214Z,22.63
2022-11-27T16:59:57.666Z,22.63
2022-11-27T17:02:25.294Z,22.63
2022-11-27T17:04:52.754Z,22.58
2022-11-27T17:07:20.952Z,22.89
2022-11-27T17:09:49.828Z,22.96
2022-11-27T17:12:17.576Z,23.09
2022-11-27T17:14:46.999Z,23.10
2022-11-27T17:17:14.542Z,23.17
2022-11-27T17:19:42.432Z,23.12
2022-11-27T17:22:10.482Z,23.25
2022-11-27T17:39:36.991Z,11.90
2022-11-27T17:42:08.736Z,10.09
2022-11-27T17:44:39.126Z,8.10
2022-11-27T17:47:06.614Z,7.30
2022-11-27T17:49:34.523Z,6.71
2022-11-27T17:52:06.372Z,5.89
2022-11-27T17:54:34.561Z,5.68
2022-11-27T17:57:03.410Z,5.61
2022-11-27T17:59:30.952Z,5.58
2022-11-27T18:01:58.923Z,5.32
2022-11-27T18:04:30.631Z,5.10
2022-11-27T18:06:58.480Z,5.04
2022-11-27T18:09:25.943Z,4.86
2022-11-27T18:11:54.821Z,4.77
2022-11-27T18:14:23.674Z,4.90
2022-11-27T18:16:51.196Z,4.76
2022-11-27T18:19:18.730Z,4.86
2022-11-27T18:21:46.273Z,4.81
2022-11-27T18:24:29.186Z,4.75
2022-11-27T18:27:12.267Z,4.80
2022-11-27T18:29:44.405Z,4.85
2022-11-27T18:32:14.308Z,4.95
2022-11-27T18:34:42.401Z,4.90
2022-11-27T18:37:10.391Z,4.96
2022-11-27T18:39:38.107Z,4.90
2022-11-27T18:42:06.555Z,4.93
2022-11-27T18:44:39.714Z,4.91
2022-11-27T18:47:12.494Z,4.88
2022-11-27T18:49:41.334Z,4.86
2022-11-27T18:52:10.477Z,4.79
2022-11-27T18:54:38.075Z,4.89
2022-11-27T18:57:06.970Z,4.91
2022-11-27T18:59:34.544Z,4.82
2022-11-27T19:02:02.381Z,4.80
2022-11-27T19:04:31.376Z,4.89
2022-11-27T19:06:58.910Z,4.79
2022-11-27T19:09:26.459Z,4.85
2022-11-27T19:11:53.929Z,4.83
2022-11-27T19:14:21.421Z,4.91
2022-11-27T19:16:49.589Z,4.86
2022-11-27T19:22:08.523Z,4.88
2022-11-27T19:24:36.390Z,4.79
2022-11-27T19:27:06.981Z,4.90
2022-11-27T19:29:34.718Z,4.86
2022-11-27T19:32:02.816Z,4.69
2022-11-27T19:34:30.415Z,4.75
2022-11-27T19:36:58.890Z,4.62
2022-11-27T19:39:28.650Z,4.69
2022-11-27T19:41:57.670Z,4.72
2022-11-27T19:44:25.312Z,4.77
2022-11-27T19:46:52.851Z,4.69
2022-11-27T19:49:21.513Z,4.70
2022-11-27T19:51:49.697Z,4.80
2022-11-27T19:54:19.163Z,4.72
2022-11-27T19:56:48.063Z,4.66
2022-11-27T19:59:15.728Z,4.74
2022-11-27T20:01:43.398Z,4.75
2022-11-27T20:04:11.935Z,4.76
2022-11-27T20:06:40.980Z,4.73
2022-11-27T20:09:08.893Z,4.81
2022-11-27T20:11:36.744Z,4.96
2022-11-27T20:14:06.953Z,4.76
2022-11-27T20:16:35.505Z,4.85
2022-11-27T20:19:05.291Z,4.78
2022-11-27T20:21:32.787Z,4.74
2022-11-27T20:24:00.553Z,4.81
2022-11-27T20:26:30.378Z,4.80
2022-11-27T20:28:58.555Z,4.84
2022-11-27T20:31:29.604Z,4.87
2022-11-27T20:34:00.536Z,4.97
2022-11-27T20:36:31.974Z,4.99
2022-11-27T20:39:01.032Z,5.04
2022-11-27T20:41:29.136Z,5.00
2022-11-27T20:43:57.190Z,4.88
2022-11-27T20:46:24.960Z,4.86
2022-11-27T20:48:55.050Z,4.86
2022-11-27T20:51:25.226Z,4.90
2022-11-27T20:53:52.739Z,4.91
2022-11-27T20:56:21.555Z,4.98
2022-11-27T20:58:49.942Z,4.93
2022-11-27T21:01:19.534Z,4.89
2022-11-27T21:03:49.088Z,4.89
2022-11-27T21:06:19.816Z,4.95
2022-11-27T21:08:47.319Z,4.97
2022-11-27T21:11:16.641Z,5.00
2022-11-27T21:13:44.675Z,4.94
2022-11-27T21:16:13.155Z,4.96
2022-11-27T21:18:40.988Z,4.96
2022-11-27T21:21:11.368Z,4.82
2022-11-27T21:23:40.802Z,4.95
2022-11-27T21:26:09.200Z,4.93
2022-11-27T21:28:36.833Z,4.85
2022-11-27T21:31:06.644Z,4.87
2022-11-27T21:33:34.225Z,4.98
2022-11-27T21:36:01.837Z,4.87
2022-11-27T21:38:29.370Z,4.76
2022-11-27T21:40:58.195Z,4.75
2022-11-27T21:43:25.752Z,4.80
2022-11-27T22:00:25.523Z,4.86
2022-11-27T22:02:53.627Z,4.81
2022-11-27T22:05:20.998Z,4.73
2022-11-27T22:07:48.545Z,4.89
2022-11-27T22:10:16.272Z,4.80
2022-11-27T22:12:43.798Z,4.70
2022-11-27T22:15:12.136Z,4.79
2022-11-27T22:17:40.946Z,4.77
2022-11-27T22:20:09.309Z,4.76
2022-11-27T22:22:36.771Z,4.70
2022-11-27T22:25:04.683Z,4.62
2022-11-27T22:27:32.235Z,4.72
2022-11-27T22:29:59.686Z,4.77
2022-11-27T22:32:27.223Z,4.85
2022-11-27T22:34:56.184Z,4.81
2022-11-27T22:37:23.688Z,4.76
2022-11-27T22:39:51.164Z,4.73
2022-11-27T22:42:18.660Z,4.74
2022-11-27T22:44:46.359Z,4.77
2022-11-27T22:47:13.814Z,4.87
2022-11-27T22:49:41.556Z,4.83
2022-11-27T22:52:10.378Z,4.82
2022-11-27T22:54:37.857Z,4.86
2022-11-27T22:57:05.321Z,4.90
2022-11-27T22:59:34.368Z,4.97
2022-11-27T23:02:02.709Z,4.74
2022-11-27T23:04:30.175Z,4.80
2022-11-27T23:06:57.639Z,4.88
2022-11-27T23:09:26.734Z,4.94
2022-11-27T23:11:54.312Z,4.82
2022-11-27T23:14:21.771Z,4.76
2022-11-27T23:16:49.490Z,4.91
2022-11-27T23:19:17.055Z,4.86
2022-11-27T23:21:44.749Z,4.79
2022-11-27T23:24:15.061Z,4.83
2022-11-27T23:26:45.662Z,4.81
2022-11-27T23:29:13.842Z,4.88
2022-11-27T23:31:41.368Z,4.90
2022-11-27T23:34:13.036Z,4.88
2022-11-27T23:36:40.591Z,4.82
2022-11-27T23:39:10.035Z,4.78
2022-11-27T23:41:37.520Z,4.86
2022-11-27T23:44:06.753Z,4.85
2022-11-27T23:46:34.267Z,4.73
2022-11-27T23:49:03.312Z,4.84
2022-11-27T23:51:32.558Z,4.75
2022-11-27T23:54:01.356Z,4.77
2022-11-27T23:56:30.816Z,4.77
2022-11-27T23:58:59.030Z,4.79
